Time,TemperatureF,DewpointF,PressureIn,WindDirection,WindDirectionDegrees,WindSpeedMPH,WindSpeedGustMPH,Humidity,HourlyPrecipIn,Conditions,Clouds,dailyrainin,SoftwareType,DateUTC
2013-02-07 00:02:00,36.0,-99.9,-100.00,South,173,4.0,5.0,-999,0.00,,,0.00,,2013-02-07 06:02:00,
2013-02-07 00:11:00,36.0,-99.9,-100.00,South,173,4.0,5.0,-999,0.00,,,0.00,,2013-02-07 06:11:00,
2013-02-07 00:22:00,36.0,-99.9,-100.00,South,173,4.0,5.0,-999,0.00,,,0.00,,2013-02-07 06:22:00,
2013-02-07 00:32:00,34.0,-99.9,-100.00,South,169,4.0,6.0,-999,0.00,,,0.00,,2013-02-07 06:32:00,
2013-02-07 00:43:00,34.0,-99.9,-100.00,South,169,4.0,6.0,-999,0.00,,,0.00,,2013-02-07 06:43:00,
2013-02-07 00:53:00,34.0,-99.9,-100.00,South,169,4.0,6.0,-999,0.00,,,0.00,,2013-02-07 06:53:00,
2013-02-07 01:02:00,34.0,-99.9,-100.00,SSE,167,4.0,6.0,-999,0.00,,,0.00,,2013-02-07 07:02:00,
2013-02-07 01:12:00,34.0,-99.9,-100.00,SSE,167,4.0,6.0,-999,0.00,,,0.00,,2013-02-07 07:12:00,
2013-02-07 01:22:00,34.0,-99.9,-100.00,SSE,167,4.0,6.0,-999,0.00,,,0.00,,2013-02-07 07:22:00,
2013-02-07 01:32:00,34.0,-99.9,-100.00,South,170,3.0,4.0,-999,0.00,,,0.00,,2013-02-07 07:32:00,
2013-02-07 01:42:00,34.0,-99.9,-100.00,South,170,3.0,4.0,-999,0.00,,,0.00,,2013-02-07 07:42:00,
2013-02-07 01:53:00,34.0,-99.9,-100.00,South,170,3.0,4.0,-999,0.00,,,0.00,,2013-02-07 07:53:00,
2013-02-07 02:02:00,34.0,-99.9,-100.00,SSE,164,3.0,4.0,-999,0.00,,,0.00,,2013-02-07 08:02:00,
2013-02-07 02:11:00,34.0,-99.9,-100.00,SSE,164,3.0,4.0,-999,0.00,,,0.00,,2013-02-07 08:11:00,
2013-02-07 02:22:00,34.0,-99.9,-100.00,SSE,164,3.0,4.0,-999,0.00,,,0.00,,2013-02-07 08:22:00,
2013-02-07 02:32:00,35.0,-99.9,-100.00,SSE,167,3.0,5.0,-999,0.00,,,0.00,,2013-02-07 08:32:00,
2013-02-07 02:42:00,35.0,-99.9,-100.00,SSE,167,3.0,5.0,-999,0.00,,,0.00,,2013-02-07 08:42:00,
2013-02-07 02:52:00,35.0,-99.9,-100.00,SSE,167,3.0,5.0,-999,0.00,,,0.00,,2013-02-07 08:52:00,
2013-02-07 03:02:00,35.0,-99.9,-100.00,South,177,2.0,3.0,-999,0.00,,,0.00,,2013-02-07 09:02:00,
2013-02-07 03:12:00,35.0,-99.9,-100.00,South,177,2.0,3.0,-999,0.00,,,0.00,,2013-02-07 09:12:00,
2013-02-07 03:22:00,35.0,-99.9,-100.00,South,177,2.0,3.0,-999,0.00,,,0.00,,2013-02-07 09:22:00,
2013-02-07 03:32:00,35.0,-99.9,-100.00,South,185,1.0,2.0,-999,0.00,,,0.00,,2013-02-07 09:32:00,
2013-02-07 03:42:00,35.0,-99.9,-100.00,South,185,1.0,2.0,-999,0.00,,,0.00,,2013-02-07 09:42:00,
2013-02-07 03:52:00,35.0,-99.9,-100.00,South,185,1.0,2.0,-999,0.00,,,0.00,,2013-02-07 09:52:00,
2013-02-07 04:02:00,35.0,-99.9,-100.00,South,177,1.0,2.0,-999,0.00,,,0.00,,2013-02-07 10:02:00,
2013-02-07 04:11:00,35.0,-99.9,-100.00,South,177,1.0,2.0,-999,0.00,,,0.00,,2013-02-07 10:11:00,
2013-02-07 04:22:00,35.0,-99.9,-100.00,South,177,1.0,2.0,-999,0.00,,,0.00,,2013-02-07 10:22:00,
2013-02-07 04:32:00,35.0,-99.9,-100.00,South,176,2.0,4.0,-999,0.00,,,0.00,,2013-02-07 10:32:00,
2013-02-07 04:42:00,35.0,-99.9,-100.00,South,176,2.0,4.0,-999,0.00,,,0.00,,2013-02-07 10:42:00,
2013-02-07 04:52:00,35.0,-99.9,-100.00,South,176,2.0,4.0,-999,0.00,,,0.00,,2013-02-07 10:52:00,
2013-02-07 05:02:00,35.0,-99.9,-100.00,SSE,168,3.0,4.0,-999,0.00,,,0.00,,2013-02-07 11:02:00,
2013-02-07 05:12:00,35.0,-99.9,-100.00,SSE,168,3.0,4.0,-999,0.00,,,0.00,,2013-02-07 11:12:00,
2013-02-07 05:23:00,35.0,-99.9,-100.00,SSE,168,3.0,4.0,-999,0.00,,,0.00,,2013-02-07 11:23:00,
2013-02-07 05:32:00,34.0,-99.9,-100.00,South,180,1.0,2.0,-999,0.00,,,0.00,,2013-02-07 11:32:00,
2013-02-07 05:44:00,34.0,-99.9,-100.00,South,180,1.0,2.0,-999,0.00,,,0.00,,2013-02-07 11:44:00,
2013-02-07 05:53:00,34.0,-99.9,-100.00,South,180,1.0,2.0,-999,0.00,,,0.00,,2013-02-07 11:53:00,
2013-02-07 06:02:00,34.0,-99.9,-100.00,South,171,1.0,2.0,-999,0.00,,,0.00,,2013-02-07 12:02:00,
2013-02-07 06:12:00,34.0,-99.9,-100.00,South,171,1.0,2.0,-999,0.00,,,0.00,,2013-02-07 12:12:00,
2013-02-07 06:22:00,34.0,-99.9,-100.00,South,171,1.0,2.0,-999,0.00,,,0.00,,2013-02-07 12:22:00,
2013-02-07 06:33:00,35.0,-99.9,-100.00,SE,132,1.0,2.0,-999,0.00,,,0.00,,2013-02-07 12:33:00,
2013-02-07 06:42:00,35.0,-99.9,-100.00,SE,132,1.0,2.0,-999,0.00,,,0.00,,2013-02-07 12:42:00,
2013-02-07 06:53:00,35.0,-99.9,-100.00,SE,132,1.0,2.0,-999,0.00,,,0.00,,2013-02-07 12:53:00,
2013-02-07 07:03:00,34.0,-99.9,-100.00,SSE,154,2.0,5.0,-999,0.00,,,0.00,,2013-02-07 13:03:00,
2013-02-07 07:12:00,34.0,-99.9,-100.00,SSE,154,2.0,5.0,-999,0.00,,,0.00,,2013-02-07 13:12:00,
2013-02-07 07:22:00,34.0,-99.9,-100.00,SSE,154,2.0,5.0,-999,0.00,,,0.00,,2013-02-07 13:22:00,
2013-02-07 07:33:00,34.0,-99.9,-100.00,SSE,163,2.0,4.0,-999,0.00,,,0.00,,2013-02-07 13:33:00,
2013-02-07 07:42:00,34.0,-99.9,-100.00,SSE,163,2.0,4.0,-999,0.00,,,0.00,,2013-02-07 13:42:00,
2013-02-07 07:52:00,34.0,-99.9,-100.00,SSE,163,2.0,4.0,-999,0.00,,,0.00,,2013-02-07 13:52:00,
2013-02-07 08:02:00,34.0,-99.9,-100.00,SSE,165,2.0,3.0,-999,0.01,,,0.01,,2013-02-07 14:02:00,
2013-02-07 08:12:00,34.0,-99.9,-100.00,SSE,165,2.0,3.0,-999,0.01,,,0.01,,2013-02-07 14:12:00,
2013-02-07 08:22:00,34.0,-99.9,-100.00,SSE,165,2.0,3.0,-999,0.01,,,0.01,,2013-02-07 14:22:00,
2013-02-07 08:32:00,34.0,-99.9,-100.00,South,171,0.0,2.0,-999,0.01,,,0.01,,2013-02-07 14:32:00,
2013-02-07 08:42:00,34.0,-99.9,-100.00,South,171,0.0,2.0,-999,0.01,,,0.01,,2013-02-07 14:42:00,
2013-02-07 08:52:00,34.0,-99.9,-100.00,South,171,0.0,2.0,-999,0.01,,,0.01,,2013-02-07 14:52:00,
2013-02-07 09:02:00,34.0,-99.9,-100.00,SSE,158,0.0,1.0,-999,0.03,,,0.04,,2013-02-07 15:02:00,
2013-02-07 09:11:00,34.0,-99.9,-100.00,SSE,158,0.0,1.0,-999,0.03,,,0.04,,2013-02-07 15:11:00,
2013-02-07 09:22:00,34.0,-99.9,-100.00,SSE,158,0.0,1.0,-999,0.03,,,0.04,,2013-02-07 15:22:00,
2013-02-07 09:32:00,35.0,-99.9,-100.00,SE,125,1.0,2.0,-999,0.06,,,0.07,,2013-02-07 15:32:00,
2013-02-07 09:42:00,35.0,-99.9,-100.00,SE,125,1.0,2.0,-999,0.06,,,0.07,,2013-02-07 15:42:00,
2013-02-07 09:53:00,35.0,-99.9,-100.00,SE,125,1.0,2.0,-999,0.06,,,0.07,,2013-02-07 15:53:00,
2013-02-07 10:02:00,35.0,-99.9,-100.00,SE,132,1.0,2.0,-999,0.05,,,0.09,,2013-02-07 16:02:00,
2013-02-07 10:11:00,35.0,-99.9,-100.00,SE,132,1.0,2.0,-999,0.05,,,0.09,,2013-02-07 16:11:00,
2013-02-07 10:22:00,35.0,-99.9,-100.00,SE,132,1.0,2.0,-999,0.05,,,0.09,,2013-02-07 16:22:00,
2013-02-07 10:32:00,35.0,-99.9,-100.00,ESE,122,1.0,2.0,-999,0.05,,,0.12,,2013-02-07 16:32:00,
2013-02-07 10:42:00,35.0,-99.9,-100.00,ESE,122,1.0,2.0,-999,0.05,,,0.12,,2013-02-07 16:42:00,
2013-02-07 10:52:00,35.0,-99.9,-100.00,ESE,122,1.0,2.0,-999,0.05,,,0.12,,2013-02-07 16:52:00,
2013-02-07 11:00:00,35.0,-99.9,-100.00,SSE,151,2.0,3.0,-999,0.08,,,0.20,,2013-02-07 17:00:00,
2013-02-07 11:01:00,35.0,-99.9,-100.00,ESE,119,1.0,3.0,-999,0.07,,,0.16,,2013-02-07 17:01:00,
2013-02-07 11:11:00,35.0,-99.9,-100.00,ESE,119,1.0,3.0,-999,0.07,,,0.16,,2013-02-07 17:11:00,
2013-02-07 11:22:00,35.0,-99.9,-100.00,ESE,119,1.0,3.0,-999,0.07,,,0.16,,2013-02-07 17:22:00,
2013-02-07 11:32:00,35.0,-99.9,-100.00,SSE,151,2.0,3.0,-999,0.08,,,0.20,,2013-02-07 17:32:00,
2013-02-07 11:43:00,35.0,-99.9,-100.00,SSE,151,2.0,3.0,-999,0.08,,,0.20,,2013-02-07 17:43:00,
2013-02-07 11:52:00,35.0,-99.9,-100.00,SSE,151,2.0,3.0,-999,0.08,,,0.20,,2013-02-07 17:52:00,
2013-02-07 13:02:00,36.0,-99.9,-100.00,North,350,0.0,1.0,-999,-99.99,,,0.29,,2013-02-07 19:02:00,
2013-02-07 13:11:00,36.0,-99.9,-100.00,North,350,0.0,1.0,-999,-99.99,,,0.29,,2013-02-07 19:11:00,
2013-02-07 13:22:00,36.0,-99.9,-100.00,North,350,0.0,1.0,-999,-99.99,,,0.29,,2013-02-07 19:22:00,
2013-02-07 13:32:00,36.0,-99.9,-100.00,NNW,345,2.0,3.0,-999,0.04,,,0.31,,2013-02-07 19:32:00,
2013-02-07 13:42:00,36.0,-99.9,-100.00,NNW,345,2.0,3.0,-999,0.04,,,0.31,,2013-02-07 19:42:00,
2013-02-07 13:52:00,36.0,-99.9,-100.00,NNW,345,2.0,3.0,-999,0.04,,,0.31,,2013-02-07 19:52:00,
2013-02-07 14:01:00,35.0,-99.9,-100.00,NNW,338,3.0,4.0,-999,0.02,,,0.31,,2013-02-07 20:01:00,
2013-02-07 14:11:00,35.0,-99.9,-100.00,NNW,338,3.0,4.0,-999,0.02,,,0.31,,2013-02-07 20:11:00,
2013-02-07 14:22:00,35.0,-99.9,-100.00,NNW,338,3.0,4.0,-999,0.02,,,0.31,,2013-02-07 20:22:00,
2013-02-07 14:32:00,34.0,-99.9,-100.00,NNW,342,3.0,3.0,-999,0.01,,,0.32,,2013-02-07 20:32:00,
2013-02-07 14:42:00,34.0,-99.9,-100.00,NNW,342,3.0,3.0,-999,0.01,,,0.32,,2013-02-07 20:42:00,
2013-02-07 14:52:00,34.0,-99.9,-100.00,NNW,342,3.0,3.0,-999,0.01,,,0.32,,2013-02-07 20:52:00,
2013-02-07 15:02:00,34.0,-99.9,-100.00,NNW,343,4.0,4.0,-999,0.02,,,0.33,,2013-02-07 21:02:00,
2013-02-07 15:11:00,34.0,-99.9,-100.00,NNW,343,4.0,4.0,-999,0.02,,,0.33,,2013-02-07 21:11:00,
2013-02-07 15:22:00,34.0,-99.9,-100.00,NNW,343,4.0,4.0,-999,0.02,,,0.33,,2013-02-07 21:22:00,
2013-02-07 15:32:00,34.0,-99.9,-100.00,NNW,338,5.0,7.0,-999,0.02,,,0.34,,2013-02-07 21:32:00,
2013-02-07 15:42:00,34.0,-99.9,-100.00,NNW,338,5.0,7.0,-999,0.02,,,0.34,,2013-02-07 21:42:00,
2013-02-07 15:52:00,34.0,-99.9,-100.00,NNW,338,5.0,7.0,-999,0.02,,,0.34,,2013-02-07 21:52:00,
2013-02-07 16:02:00,33.0,-99.9,-100.00,NNW,345,6.0,7.0,-999,0.03,,,0.36,,2013-02-07 22:02:00,
2013-02-07 16:11:00,33.0,-99.9,-100.00,NNW,345,6.0,7.0,-999,0.03,,,0.36,,2013-02-07 22:11:00,
2013-02-07 16:22:00,33.0,-99.9,-100.00,NNW,345,6.0,7.0,-999,0.03,,,0.36,,2013-02-07 22:22:00,
2013-02-07 16:32:00,32.0,-99.9,-100.00,NNW,348,5.0,7.0,-999,0.02,,,0.36,,2013-02-07 22:32:00,
2013-02-07 16:42:00,32.0,-99.9,-100.00,NNW,348,5.0,7.0,-999,0.02,,,0.36,,2013-02-07 22:42:00,
2013-02-07 16:52:00,32.0,-99.9,-100.00,NNW,348,5.0,7.0,-999,0.02,,,0.36,,2013-02-07 22:52:00,
2013-02-07 17:00:00,32.0,-99.9,-100.00,NNE,14,6.0,7.0,-999,0.01,,,0.37,,2013-02-07 23:00:00,
2013-02-07 17:02:00,33.0,-99.9,-100.00,NNW,340,6.0,7.0,-999,0.01,,,0.37,,2013-02-07 23:02:00,
2013-02-07 17:11:00,33.0,-99.9,-100.00,NNW,340,6.0,7.0,-999,0.01,,,0.37,,2013-02-07 23:11:00,
2013-02-07 17:22:00,33.0,-99.9,-100.00,NNW,340,6.0,7.0,-999,0.01,,,0.37,,2013-02-07 23:22:00,
2013-02-07 17:32:00,32.0,-99.9,-100.00,NNE,14,6.0,7.0,-999,0.01,,,0.37,,2013-02-07 23:32:00,
2013-02-07 17:42:00,32.0,-99.9,-100.00,NNE,14,6.0,7.0,-999,0.01,,,0.37,,2013-02-07 23:42:00,
2013-02-07 17:52:00,32.0,-99.9,-100.00,NNE,14,6.0,7.0,-999,0.01,,,0.37,,2013-02-07 23:52:00,
2013-02-07 18:32:00,33.0,-99.9,-100.00,NNW,339,9.0,11.0,-999,0.00,,,0.37,,2013-02-08 00:32:00,
2013-02-07 18:42:00,33.0,-99.9,-100.00,NNW,339,9.0,11.0,-999,0.00,,,0.37,,2013-02-08 00:42:00,
2013-02-07 18:53:00,33.0,-99.9,-100.00,NNW,339,9.0,11.0,-999,0.00,,,0.37,,2013-02-08 00:53:00,
2013-02-07 19:02:00,33.0,-99.9,-100.00,NNW,339,7.0,11.0,-999,0.01,,,0.38,,2013-02-08 01:02:00,
2013-02-07 19:11:00,33.0,-99.9,-100.00,NNW,339,7.0,11.0,-999,0.01,,,0.38,,2013-02-08 01:11:00,
2013-02-07 19:22:00,33.0,-99.9,-100.00,NNW,339,7.0,11.0,-999,0.01,,,0.38,,2013-02-08 01:22:00,
2013-02-07 19:32:00,33.0,-99.9,-100.00,NNW,329,8.0,12.0,-999,0.01,,,0.38,,2013-02-08 01:32:00,
2013-02-07 19:42:00,33.0,-99.9,-100.00,NNW,329,8.0,12.0,-999,0.01,,,0.38,,2013-02-08 01:42:00,
2013-02-07 19:52:00,33.0,-99.9,-100.00,NNW,329,8.0,12.0,-999,0.01,,,0.38,,2013-02-08 01:52:00,
2013-02-07 20:01:00,34.0,-99.9,-100.00,NW,326,8.0,16.0,-999,0.00,,,0.38,,2013-02-08 02:01:00,
2013-02-07 20:11:00,34.0,-99.9,-100.00,NW,326,8.0,16.0,-999,0.00,,,0.38,,2013-02-08 02:11:00,
2013-02-07 20:22:00,34.0,-99.9,-100.00,NW,326,8.0,16.0,-999,0.00,,,0.38,,2013-02-08 02:22:00,
2013-02-07 20:32:00,34.0,-99.9,-100.00,NNW,333,12.0,16.0,-999,0.00,,,0.38,,2013-02-08 02:32:00,
2013-02-07 20:42:00,34.0,-99.9,-100.00,NNW,333,12.0,16.0,-999,0.00,,,0.38,,2013-02-08 02:42:00,
2013-02-07 20:53:00,34.0,-99.9,-100.00,NNW,333,12.0,16.0,-999,0.00,,,0.38,,2013-02-08 02:53:00,
2013-02-07 21:02:00,32.0,-99.9,-100.00,NNW,344,26.0,29.0,-999,0.00,,,0.38,,2013-02-08 03:02:00,
2013-02-07 21:12:00,32.0,-99.9,-100.00,NNW,344,26.0,29.0,-999,0.00,,,0.38,,2013-02-08 03:12:00,
2013-02-07 21:23:00,32.0,-99.9,-100.00,NNW,344,26.0,29.0,-999,0.00,,,0.38,,2013-02-08 03:23:00,
2013-02-07 21:32:00,32.0,-99.9,-100.00,North,356,19.0,22.0,-999,0.00,,,0.38,,2013-02-08 03:32:00,
2013-02-07 21:42:00,32.0,-99.9,-100.00,North,356,19.0,22.0,-999,0.00,,,0.38,,2013-02-08 03:42:00,
2013-02-07 21:52:00,32.0,-99.9,-100.00,North,356,19.0,22.0,-999,0.00,,,0.38,,2013-02-08 03:52:00,
2013-02-07 22:02:00,31.0,-99.9,-100.00,NNW,345,18.0,23.0,-999,0.00,,,0.38,,2013-02-08 04:02:00,
2013-02-07 22:11:00,31.0,-99.9,-100.00,NNW,345,18.0,23.0,-999,0.00,,,0.38,,2013-02-08 04:11:00,
2013-02-07 22:22:00,31.0,-99.9,-100.00,NNW,345,18.0,23.0,-999,0.00,,,0.38,,2013-02-08 04:22:00,
2013-02-07 22:32:00,31.0,-99.9,-100.00,NNW,346,20.0,26.0,-999,0.00,,,0.38,,2013-02-08 04:32:00,
2013-02-07 22:42:00,31.0,-99.9,-100.00,NNW,346,20.0,26.0,-999,0.00,,,0.38,,2013-02-08 04:42:00,
2013-02-07 22:52:00,31.0,-99.9,-100.00,NNW,346,20.0,26.0,-999,0.00,,,0.38,,2013-02-08 04:52:00,
2013-02-07 23:02:00,31.0,-99.9,-100.00,NNW,344,18.0,21.0,-999,0.00,,,-99.99,,2013-02-08 05:02:00,
2013-02-07 23:12:00,31.0,-99.9,-100.00,NNW,344,18.0,21.0,-999,0.00,,,-99.99,,2013-02-08 05:12:00,
2013-02-07 23:22:00,31.0,-99.9,-100.00,NNW,344,18.0,21.0,-999,0.00,,,-99.99,,2013-02-08 05:22:00,
2013-02-07 23:32:00,31.0,-99.9,-100.00,NNW,337,15.0,19.0,-999,0.00,,,0.38,,2013-02-08 05:32:00,
2013-02-07 23:42:00,31.0,-99.9,-100.00,NNW,337,15.0,19.0,-999,0.00,,,0.38,,2013-02-08 05:42:00,
2013-02-07 23:52:00,31.0,-99.9,-100.00,NNW,337,15.0,19.0,-999,0.00,,,0.38,,2013-02-08 05:52:00,